Time;durP1;ratioP1;P1;durP2;ratioP2;P2;SDS_P1;SDS_P2;PMS_P1;PMS_P2;Temp;Humidity;BMP_temperature;BMP_pressure;BME280_temperature;BME280_humidity;BME280_pressure;Samples;Min_cycle;Max_cycle;Signal;HPM_P1;HPM_P2
2023/07/23 00:00:26;;;;;;;;;;;;;;;22.93;46.00;98623.56;5072147;28;19920;-46
2023/07/23 00:02:51;;;;;;;;;;;;;;;22.92;45.85;98627.31;5054011;28;19916;-46
2023/07/23 00:05:17;;;;;;;;;;;;;;;22.62;46.13;98627.63;5071898;28;19920;-45
2023/07/23 00:07:42;;;;;;;;;;;;;;;22.37;46.49;98624.03;5053925;28;19920;-46
2023/07/23 00:10:09;;;;;;;;;;;;;;;22.27;46.35;98630.25;5071881;28;20286;-46
2023/07/23 00:12:35;;;;;;;;;;;;;;;22.34;46.92;98627.28;5071751;28;19917;-46
2023/07/23 00:15:01;;;;;;;;;;;;;;;22.57;47.11;98631.09;5053865;28;20309;-46
2023/07/23 00:17:26;;;;;;;;;;;;;;;22.62;46.51;98631.09;5053833;28;20011;-45
2023/07/23 00:19:52;;;;;;;;;;;;;;;22.67;46.55;98631.03;5071840;28;19923;-46
2023/07/23 00:22:17;;;;;;;;;;;;;;;22.64;46.12;98625.47;5053776;28;19924;-46
2023/07/23 00:24:43;;;;;;;;;;;;;;;22.50;46.74;98627.97;5053773;28;20022;-46
2023/07/23 00:27:10;;;;;;;;;;;;;;;22.64;46.92;98620.09;5054047;28;19924;-46
2023/07/23 00:29:35;;;;;;;;;;;;;;;22.59;46.66;98620.13;5071515;28;19917;-46
2023/07/23 00:32:01;;;;;;;;;;;;;;;22.33;46.56;98637.19;5071891;28;19920;-46
2023/07/23 00:34:26;;;;;;;;;;;;;;;22.36;47.14;98635.03;5071656;28;20458;-46
2023/07/23 00:36:51;;;;;;;;;;;;;;;22.78;47.05;98625.56;5053689;28;19917;-46
2023/07/23 00:39:17;;;;;;;;;;;;;;;23.04;46.20;98626.97;5071614;28;20298;-46
2023/07/23 00:41:42;;;;;;;;;;;;;;;23.24;45.78;98630.50;5053604;28;19917;-46
2023/07/23 00:44:08;;;;;;;;;;;;;;;23.24;45.00;98638.53;5053886;28;19964;-46
2023/07/23 00:46:33;;;;;;;;;;;;;;;23.07;45.21;98622.94;5071726;28;19917;-46
2023/07/23 00:49:01;;;;;;;;;;;;;;;22.81;45.30;98622.34;5053586;28;20371;-45
2023/07/23 00:51:28;;;;;;;;;;;;;;;22.32;45.61;98627.56;5055412;28;19956;-46
2023/07/23 00:53:53;;;;;;;;;;;;;;;22.02;46.38;98628.53;5057150;28;20386;-46
2023/07/23 00:56:19;;;;;;;;;;;;;;;21.91;47.11;98632.34;5075021;28;19920;-45
2023/07/23 00:58:46;;;;;;;;;;;;;;;22.18;47.55;98628.44;5057078;28;19998;-46
2023/07/23 01:01:12;;;;;;;;;;;;;;;22.17;47.50;98632.97;5074906;28;19916;-46
2023/07/23 01:03:37;;;;;;;;;;;;;;;22.01;47.70;98634.94;5075202;28;19928;-46
2023/07/23 01:06:03;;;;;;;;;;;;;;;21.83;48.29;98628.41;5056973;28;20297;-45
2023/07/23 01:08:30;;;;;;;;;;;;;;;21.69;48.34;98630.03;5074847;28;19924;-45
2023/07/23 01:10:55;;;;;;;;;;;;;;;21.34;48.46;98629.88;5074770;28;19920;-46
2023/07/23 01:13:21;;;;;;;;;;;;;;;21.10;49.30;98620.88;5057098;28;19917;-46
2023/07/23 01:15:47;;;;;;;;;;;;;;;20.86;49.98;98637.47;5056721;28;19920;-45
2023/07/23 01:18:12;;;;;;;;;;;;;;;20.67;50.37;98634.56;5074644;28;19917;-46
2023/07/23 01:20:38;;;;;;;;;;;;;;;20.71;50.59;98642.84;5074627;28;20066;-45
2023/07/23 01:23:03;;;;;;;;;;;;;;;20.75;50.56;98634.03;5074631;28;19917;-45
2023/07/23 01:25:29;;;;;;;;;;;;;;;20.74;50.39;98637.78;5056654;28;19917;-46
2023/07/23 01:27:54;;;;;;;;;;;;;;;20.61;50.61;98637.50;5056564;28;20373;-46
2023/07/23 01:30:19;;;;;;;;;;;;;;;20.61;50.76;98640.97;5074253;28;20621;-45
2023/07/23 01:32:47;;;;;;;;;;;;;;;20.57;51.07;98628.41;5056698;28;19978;-46
2023/07/23 01:35:14;;;;;;;;;;;;;;;20.66;51.37;98638.28;5074395;28;19917;-45
2023/07/23 01:37:39;;;;;;;;;;;;;;;20.77;50.91;98631.09;5074689;28;19923;-46
2023/07/23 01:40:05;;;;;;;;;;;;;;;20.67;50.70;98631.09;5056631;28;19916;-46
2023/07/23 01:42:31;;;;;;;;;;;;;;;20.43;50.80;98618.28;5074216;28;20461;-46
2023/07/23 01:45:00;;;;;;;;;;;;;;;20.38;51.35;98622.78;5074236;28;19921;-45
2023/07/23 01:47:25;;;;;;;;;;;;;;;20.39;51.81;98624.41;5074140;28;20313;-46
2023/07/23 01:49:51;;;;;;;;;;;;;;;20.24;51.91;98626.00;5056126;28;19916;-45
2023/07/23 01:52:16;;;;;;;;;;;;;;;20.24;52.34;98625.19;5055981;28;19927;-46
2023/07/23 01:54:42;;;;;;;;;;;;;;;20.31;52.19;98625.72;5072740;28;19928;-46
2023/07/23 01:57:07;;;;;;;;;;;;;;;20.29;51.83;98623.31;5073910;28;19924;-45
2023/07/23 01:59:33;;;;;;;;;;;;;;;20.19;52.07;98625.19;5056199;28;19916;-45
2023/07/23 02:01:58;;;;;;;;;;;;;;;20.12;52.51;98620.09;5055576;28;19917;-46
2023/07/23 02:04:23;;;;;;;;;;;;;;;20.10;52.59;98617.72;5055836;28;20300;-46
2023/07/23 02:06:49;;;;;;;;;;;;;;;20.19;52.55;98622.53;5055762;28;20424;-45
2023/07/23 02:09:14;;;;;;;;;;;;;;;20.16;52.33;98613.16;5055709;28;19916;-46
2023/07/23 02:11:40;;;;;;;;;;;;;;;20.31;52.31;98609.75;5055668;28;19917;-46
2023/07/23 02:14:05;;;;;;;;;;;;;;;20.39;52.04;98617.19;5073593;28;19923;-45
2023/07/23 02:16:30;;;;;;;;;;;;;;;20.49;51.74;98619.06;5073600;28;20363;-45
2023/07/23 02:18:56;;;;;;;;;;;;;;;20.63;51.60;98614.03;5055574;28;20445;-45
2023/07/23 02:21:21;;;;;;;;;;;;;;;20.66;51.41;98614.28;5073463;28;20413;-46
2023/07/23 02:23:47;;;;;;;;;;;;;;;20.34;51.37;98618.00;5055560;28;19975;-46
2023/07/23 02:26:12;;;;;;;;;;;;;;;20.19;51.64;98617.19;5055392;28;19916;-45
2023/07/23 02:28:43;;;;;;;;;;;;;;;20.17;51.80;98614.78;5055409;28;20386;-45
2023/07/23 02:31:09;;;;;;;;;;;;;;;20.03;51.77;98619.81;5073070;28;19931;-45
2023/07/23 02:33:34;;;;;;;;;;;;;;;20.01;52.32;98621.94;5055319;28;20298;-45
2023/07/23 02:36:00;;;;;;;;;;;;;;;19.94;52.08;98621.38;5055260;28;20301;-45
2023/07/23 02:38:25;;;;;;;;;;;;;;;19.84;52.26;98622.19;5038679;28;19924;-46
2023/07/23 02:40:57;;;;;;;;;;;;;;;19.57;52.58;98624.97;5073132;28;19917;-46
2023/07/23 02:43:23;;;;;;;;;;;;;;;19.42;53.15;98623.06;5073104;28;19916;-45
2023/07/23 02:45:49;;;;;;;;;;;;;;;19.50;53.40;98627.91;5055048;28;19965;-46
2023/07/23 02:48:14;;;;;;;;;;;;;;;19.56;53.23;98620.75;5073000;28;19951;-46
2023/07/23 02:50:40;;;;;;;;;;;;;;;19.52;53.41;98625.78;5038397;28;20375;-45
2023/07/23 02:53:05;;;;;;;;;;;;;;;19.48;53.73;98631.88;5054835;28;19923;-45
2023/07/23 02:55:31;;;;;;;;;;;;;;;19.43;53.83;98629.19;5054815;28;19928;-45
2023/07/23 02:57:57;;;;;;;;;;;;;;;19.37;54.09;98641.66;5038278;28;19976;-45
2023/07/23 03:00:22;;;;;;;;;;;;;;;19.30;54.45;98633.13;5072737;28;20301;-45
2023/07/23 03:02:48;;;;;;;;;;;;;;;19.20;54.79;98641.06;5054711;28;20431;-45
2023/07/23 03:05:14;;;;;;;;;;;;;;;19.10;54.88;98647.91;5072593;28;19928;-45
2023/07/23 03:07:39;;;;;;;;;;;;;;;19.12;55.13;98640.47;5072812;28;19916;-45
2023/07/23 03:10:05;;;;;;;;;;;;;;;19.11;55.37;98636.19;5072566;28;20305;-45
2023/07/23 03:12:33;;;;;;;;;;;;;;;19.09;55.17;98646.28;5072478;28;20310;-45
2023/07/23 03:14:59;;;;;;;;;;;;;;;19.08;55.35;98652.69;5071857;28;19923;-45
2023/07/23 03:17:24;;;;;;;;;;;;;;;19.09;55.30;98658.81;5072504;28;19916;-45
2023/07/23 03:19:50;;;;;;;;;;;;;;;19.12;55.05;98663.63;5054504;28;19916;-45
2023/07/23 03:22:16;;;;;;;;;;;;;;;19.16;54.83;98652.19;5072418;28;19917;-46
2023/07/23 03:24:41;;;;;;;;;;;;;;;19.14;54.82;98651.66;5054441;28;20019;-46
2023/07/23 03:27:06;;;;;;;;;;;;;;;18.94;55.25;98646.22;5054627;28;20023;-46
2023/07/23 03:29:32;;;;;;;;;;;;;;;18.67;56.09;98656.88;5072545;28;19917;-45
2023/07/23 03:31:57;;;;;;;;;;;;;;;18.44;57.23;98653.50;5053992;28;19967;-46
2023/07/23 03:34:25;;;;;;;;;;;;;;;18.24;57.82;98653.31;5071533;28;20144;-46
2023/07/23 03:36:51;;;;;;;;;;;;;;;18.12;58.57;98656.91;5072214;28;19920;-46
2023/07/23 03:39:18;;;;;;;;;;;;;;;17.96;59.21;98657.81;5054137;28;19920;-45
2023/07/23 03:41:47;;;;;;;;;;;;;;;17.87;59.78;98656.66;5054187;28;19970;-45
2023/07/23 03:44:12;;;;;;;;;;;;;;;17.84;59.91;98652.63;5054174;28;19920;-45
2023/07/23 03:46:42;;;;;;;;;;;;;;;17.82;60.59;98654.69;5072118;28;19986;-45
2023/07/23 03:49:07;;;;;;;;;;;;;;;17.74;60.81;98655.13;5054070;28;19963;-45
2023/07/23 03:51:33;;;;;;;;;;;;;;;17.71;60.87;98656.44;5054062;28;19956;-45
2023/07/23 03:53:58;;;;;;;;;;;;;;;17.70;60.88;98652.16;5072083;28;20340;-45
2023/07/23 03:56:23;;;;;;;;;;;;;;;17.70;61.12;98670.75;5054359;28;19927;-45
2023/07/23 03:58:49;;;;;;;;;;;;;;;17.74;61.15;98660.44;5072032;28;19917;-45
2023/07/23 04:01:14;;;;;;;;;;;;;;;17.72;60.84;98660.69;5053957;28;19923;-45
2023/07/23 04:03:40;;;;;;;;;;;;;;;17.76;60.95;98651.19;5072017;28;19939;-45
2023/07/23 04:06:05;;;;;;;;;;;;;;;17.86;60.83;98652.38;5053908;28;20306;-45
2023/07/23 04:08:30;;;;;;;;;;;;;;;17.84;60.73;98657.13;5053997;28;19920;-45
2023/07/23 04:10:56;;;;;;;;;;;;;;;17.74;60.90;98655.94;5053918;28;20386;-45
2023/07/23 04:13:21;;;;;;;;;;;;;;;17.72;60.85;98658.03;5071851;28;19916;-45
2023/07/23 04:15:47;;;;;;;;;;;;;;;17.78;60.85;98658.91;5072149;28;19920;-46
2023/07/23 04:18:17;;;;;;;;;;;;;;;17.95;60.61;98658.88;5071836;28;20528;-45
2023/07/23 04:20:42;;;;;;;;;;;;;;;18.27;60.13;98661.59;5071861;28;19920;-45
2023/07/23 04:23:08;;;;;;;;;;;;;;;18.64;59.60;98665.38;5071703;28;20015;-46
2023/07/23 04:25:33;;;;;;;;;;;;;;;19.04;58.85;98662.25;5073737;28;19917;-46
2023/07/23 04:27:58;;;;;;;;;;;;;;;19.74;58.68;98651.44;5057658;28;20018;-46
2023/07/23 04:30:30;;;;;;;;;;;;;;;20.27;56.28;98656.63;5075260;28;20007;-46
2023/07/23 04:32:55;;;;;;;;;;;;;;;19.96;55.24;98664.56;5057468;28;19966;-45
2023/07/23 04:35:21;;;;;;;;;;;;;;;19.62;55.57;98667.63;5057585;28;20332;-45
2023/07/23 04:37:46;;;;;;;;;;;;;;;19.37;56.03;98670.94;5075376;28;19927;-45
2023/07/23 04:40:12;;;;;;;;;;;;;;;19.28;56.04;98672.50;5057403;28;19970;-45
2023/07/23 04:42:37;;;;;;;;;;;;;;;19.19;56.40;98671.38;5075378;28;19917;-45
2023/07/23 04:45:03;;;;;;;;;;;;;;;19.23;56.47;98675.13;5057340;28;20008;-45
2023/07/23 04:47:28;;;;;;;;;;;;;;;19.54;56.03;98673.44;5075268;28;20387;-45
2023/07/23 04:49:54;;;;;;;;;;;;;;;19.80;55.40;98669.03;5057249;28;19920;-46
2023/07/23 04:52:19;;;;;;;;;;;;;;;19.74;55.16;98665.56;5075044;28;20352;-45
2023/07/23 04:54:45;;;;;;;;;;;;;;;19.56;55.60;98658.81;5057232;28;20343;-45
2023/07/23 04:57:10;;;;;;;;;;;;;;;19.36;55.87;98662.16;5075056;28;19917;-45
2023/07/23 04:59:36;;;;;;;;;;;;;;;19.25;56.37;98667.69;5057057;28;19920;-45
2023/07/23 05:02:01;;;;;;;;;;;;;;;19.29;56.45;98666.91;5075016;28;19916;-45
2023/07/23 05:04:27;;;;;;;;;;;;;;;19.55;56.33;98669.69;5074948;28;20385;-45
2023/07/23 05:06:52;;;;;;;;;;;;;;;19.72;55.96;98665.03;5056802;28;20378;-46
2023/07/23 05:09:18;;;;;;;;;;;;;;;20.11;55.80;98663.81;5074893;28;19921;-45
2023/07/23 05:11:43;;;;;;;;;;;;;;;20.65;54.21;98655.34;5056790;28;19928;-46
2023/07/23 05:14:08;;;;;;;;;;;;;;;20.74;52.90;98660.94;5074825;28;20297;-46
2023/07/23 05:16:34;;;;;;;;;;;;;;;20.58;53.14;98662.00;5074772;28;19916;-45
2023/07/23 05:18:59;;;;;;;;;;;;;;;20.41;53.37;98655.06;5056739;28;19944;-45
2023/07/23 05:21:25;;;;;;;;;;;;;;;20.15;53.77;98659.53;5056693;28;19920;-45
2023/07/23 05:23:50;;;;;;;;;;;;;;;20.20;54.32;98666.75;5074668;28;19916;-46
2023/07/23 05:26:15;;;;;;;;;;;;;;;20.24;53.99;98663.31;5056626;28;19916;-46
2023/07/23 05:28:41;;;;;;;;;;;;;;;20.27;53.86;98667.31;5074601;28;19921;-46
2023/07/23 05:31:06;;;;;;;;;;;;;;;20.25;53.79;98664.88;5074206;28;19950;-45
2023/07/23 05:33:32;;;;;;;;;;;;;;;20.38;53.63;98668.91;5074303;28;20054;-46
2023/07/23 05:35:57;;;;;;;;;;;;;;;20.71;53.57;98666.84;5056210;28;19924;-45
2023/07/23 05:38:23;;;;;;;;;;;;;;;20.94;52.94;98666.25;5055891;28;20305;-45
2023/07/23 05:40:53;;;;;;;;;;;;;;;21.59;52.33;98662.13;5074276;28;20029;-46
2023/07/23 05:43:19;;;;;;;;;;;;;;;23.29;49.95;98658.03;5056322;28;19923;-46
2023/07/23 05:45:44;;;;;;;;;;;;;;;25.05;46.72;98652.63;5074193;28;19917;-45
2023/07/23 05:48:10;;;;;;;;;;;;;;;26.13;44.10;98658.53;5074070;28;19970;-46
2023/07/23 05:50:35;;;;;;;;;;;;;;;25.84;43.27;98651.63;5056169;28;19916;-46
2023/07/23 05:53:01;;;;;;;;;;;;;;;25.30;44.25;98659.41;5056021;28;19920;-46
2023/07/23 05:55:26;;;;;;;;;;;;;;;25.05;44.91;98668.72;5056084;28;19920;-46
2023/07/23 05:57:51;;;;;;;;;;;;;;;24.78;45.31;98665.97;5073990;28;19978;-46
2023/07/23 06:00:17;;;;;;;;;;;;;;;24.57;45.34;98668.19;5074096;28;20007;-46
2023/07/23 06:02:42;;;;;;;;;;;;;;;24.43;45.69;98670.81;5073899;28;19917;-46
2023/07/23 06:05:08;;;;;;;;;;;;;;;25.36;44.85;98670.06;5073767;28;20382;-45
2023/07/23 06:07:33;;;;;;;;;;;;;;;26.58;42.80;98661.31;5055881;28;20283;-46
2023/07/23 06:09:58;;;;;;;;;;;;;;;27.47;41.23;98662.22;5073949;28;19967;-46
2023/07/23 06:12:24;;;;;;;;;;;;;;;27.68;40.81;98662.44;5055659;28;19917;-46
2023/07/23 06:14:49;;;;;;;;;;;;;;;28.73;39.76;98662.50;5055721;28;19932;-46
2023/07/23 06:17:17;;;;;;;;;;;;;;;30.30;37.76;98660.91;5073847;28;19917;-46
2023/07/23 06:19:42;;;;;;;;;;;;;;;30.26;36.60;98661.59;5073489;28;19917;-46
2023/07/23 06:22:08;;;;;;;;;;;;;;;29.54;37.13;98663.50;5073479;28;19928;-46
2023/07/23 06:24:33;;;;;;;;;;;;;;;28.94;37.67;98668.00;5055454;28;19916;-46
2023/07/23 06:26:59;;;;;;;;;;;;;;;28.50;38.48;98667.31;5055404;28;19916;-46
2023/07/23 06:29:25;;;;;;;;;;;;;;;28.49;38.23;98668.38;5073357;28;19952;-46
2023/07/23 06:31:50;;;;;;;;;;;;;;;29.67;37.23;98661.66;5055003;28;19978;-46
2023/07/23 06:34:16;;;;;;;;;;;;;;;31.39;35.06;98656.13;5055287;28;19921;-46
2023/07/23 06:36:41;;;;;;;;;;;;;;;32.81;33.36;98655.97;5055275;28;19921;-46
2023/07/23 06:39:07;;;;;;;;;;;;;;;34.12;31.74;98649.69;5055201;28;20447;-46
2023/07/23 06:41:32;;;;;;;;;;;;;;;35.01;30.25;98639.66;5073089;28;20309;-46
2023/07/23 06:43:58;;;;;;;;;;;;;;;35.61;28.75;98636.28;5073286;28;19920;-46
2023/07/23 06:46:23;;;;;;;;;;;;;;;36.02;28.10;98627.47;5055022;28;20017;-46
2023/07/23 06:48:49;;;;;;;;;;;;;;;36.33;27.65;98626.31;5072228;28;19923;-47
2023/07/23 06:51:14;;;;;;;;;;;;;;;36.67;26.40;98618.06;5054967;28;19916;-47
2023/07/23 06:53:41;;;;;;;;;;;;;;;37.07;25.46;98621.94;5054817;28;19965;-47
2023/07/23 06:56:12;;;;;;;;;;;;;;;37.13;25.85;98623.94;5072829;28;20445;-47
2023/07/23 06:58:38;;;;;;;;;;;;;;;37.51;25.50;98619.09;5054887;28;19933;-47
2023/07/23 07:01:04;;;;;;;;;;;;;;;38.10;24.94;98629.19;5054760;28;19920;-47
2023/07/23 07:03:30;;;;;;;;;;;;;;;39.03;24.49;98620.34;5054768;28;19917;-47
2023/07/23 07:05:55;;;;;;;;;;;;;;;39.64;23.76;98623.78;5072650;28;20394;-47
2023/07/23 07:08:21;;;;;;;;;;;;;;;39.80;23.60;98617.84;5072599;28;20007;-47
2023/07/23 07:10:46;;;;;;;;;;;;;;;39.95;23.34;98624.09;5072774;28;19917;-47
2023/07/23 07:13:12;;;;;;;;;;;;;;;40.14;23.22;98629.09;5072541;28;20339;-47
2023/07/23 07:15:37;;;;;;;;;;;;;;;40.19;22.64;98632.63;5054551;28;19974;-47
2023/07/23 07:18:03;;;;;;;;;;;;;;;39.12;23.35;98626.22;5072799;28;19916;-47
2023/07/23 07:20:28;;;;;;;;;;;;;;;38.73;23.32;98632.47;5072491;28;20305;-46
2023/07/23 07:22:54;;;;;;;;;;;;;;;38.85;23.31;98634.84;5072417;28;19916;-46
2023/07/23 07:25:19;;;;;;;;;;;;;;;38.81;23.27;98641.50;5054395;28;19939;-47
2023/07/23 07:27:45;;;;;;;;;;;;;;;38.15;24.03;98648.81;5054357;28;19927;-47
2023/07/23 07:30:10;;;;;;;;;;;;;;;37.49;24.14;98642.53;5050752;28;19928;-47
2023/07/23 07:32:36;;;;;;;;;;;;;;;37.50;24.56;98642.16;5052556;28;19917;-47
2023/07/23 07:35:01;;;;;;;;;;;;;;;37.65;24.25;98639.53;5052291;28;20409;-47
2023/07/23 07:37:27;;;;;;;;;;;;;;;37.63;24.23;98634.47;5050967;28;19931;-47
2023/07/23 07:39:52;;;;;;;;;;;;;;;37.61;24.80;98642.28;5052514;28;19921;-47
2023/07/23 07:42:18;;;;;;;;;;;;;;;37.18;25.16;98631.78;5050924;28;19917;-47
2023/07/23 07:44:43;;;;;;;;;;;;;;;37.36;25.27;98634.66;5052168;28;19967;-47
2023/07/23 07:47:09;;;;;;;;;;;;;;;37.72;24.54;98623.94;5052113;28;19971;-47
2023/07/23 07:49:34;;;;;;;;;;;;;;;38.18;24.38;98617.09;5052265;28;19917;-47
2023/07/23 07:52:00;;;;;;;;;;;;;;;38.10;24.41;98618.25;5050690;28;19960;-47
2023/07/23 07:54:25;;;;;;;;;;;;;;;38.13;24.03;98614.72;5052058;28;19917;-48
2023/07/23 07:56:51;;;;;;;;;;;;;;;38.98;23.72;98610.56;5067514;28;19931;-47
2023/07/23 07:59:16;;;;;;;;;;;;;;;39.48;23.16;98618.75;5052327;28;19920;-47
2023/07/23 08:01:42;;;;;;;;;;;;;;;39.92;22.75;98609.19;5054693;28;19916;-47
2023/07/23 08:04:09;;;;;;;;;;;;;;;40.03;22.52;98603.63;5054851;28;20020;-47
2023/07/23 08:06:35;;;;;;;;;;;;;;;39.99;22.38;98608.38;5056013;28;20394;-47
2023/07/23 08:09:02;;;;;;;;;;;;;;;40.28;22.43;98603.47;5054726;28;19924;-47
2023/07/23 08:11:27;;;;;;;;;;;;;;;40.57;22.11;98599.78;5054559;28;19925;-47
2023/07/23 08:13:53;;;;;;;;;;;;;;;39.75;22.55;98601.78;5055928;28;19924;-47
2023/07/23 08:16:19;;;;;;;;;;;;;;;39.25;22.57;98605.41;5054611;28;20003;-47
2023/07/23 08:18:44;;;;;;;;;;;;;;;39.96;22.50;98600.13;5054529;28;19917;-47
2023/07/23 08:21:10;;;;;;;;;;;;;;;41.23;21.22;98583.13;5054457;28;19964;-47
2023/07/23 08:23:36;;;;;;;;;;;;;;;42.21;20.55;98577.22;5054427;28;19917;-47
2023/07/23 08:26:03;;;;;;;;;;;;;;;43.30;19.63;98583.31;5054422;28;19924;-47
2023/07/23 08:28:29;;;;;;;;;;;;;;;43.52;19.51;98591.19;5054343;28;19947;-47
2023/07/23 08:30:56;;;;;;;;;;;;;;;44.26;18.83;98597.13;5054069;28;19920;-48
2023/07/23 08:33:26;;;;;;;;;;;;;;;43.54;18.76;98591.53;5055514;28;19979;-47
2023/07/23 08:35:52;;;;;;;;;;;;;;;41.68;19.96;98590.50;5055589;28;19924;-47
2023/07/23 08:38:17;;;;;;;;;;;;;;;40.16;21.00;98578.44;5055543;28;19921;-47
2023/07/23 08:40:44;;;;;;;;;;;;;;;38.99;21.91;98589.38;5055406;28;19920;-46
2023/07/23 08:43:22;;;;;;;;;;;;;;;37.96;22.98;98584.09;5054098;28;19968;-46
2023/07/23 08:46:06;;;;;;;;;;;;;;;38.92;23.03;98584.66;5054038;28;19920;-47
2023/07/23 08:48:40;;;;;;;;;;;;;;;39.60;22.38;98583.78;5054036;28;19916;-47
2023/07/23 08:51:06;;;;;;;;;;;;;;;39.84;21.96;98574.63;5053925;28;19916;-47
2023/07/23 08:53:33;;;;;;;;;;;;;;;39.58;22.22;98577.91;5053823;28;19917;-47
2023/07/23 08:55:58;;;;;;;;;;;;;;;39.97;21.95;98575.00;5053830;28;20352;-47
2023/07/23 08:58:24;;;;;;;;;;;;;;;40.63;21.52;98568.69;5055095;28;19921;-48
2023/07/23 09:00:49;;;;;;;;;;;;;;;41.19;21.21;98573.31;5053748;28;19917;-48
2023/07/23 09:03:20;;;;;;;;;;;;;;;41.29;20.92;98564.16;5055072;28;20008;-47
2023/07/23 09:05:45;;;;;;;;;;;;;;;41.69;20.35;98561.75;5055237;28;19970;-48
2023/07/23 09:08:11;;;;;;;;;;;;;;;42.10;19.39;98561.59;5053698;28;19916;-48
2023/07/23 09:10:36;;;;;;;;;;;;;;;42.99;18.97;98560.63;5054843;28;19921;-47
2023/07/23 09:13:09;;;;;;;;;;;;;;;43.33;18.25;98560.38;5053928;28;19917;-47
2023/07/23 09:15:34;;;;;;;;;;;;;;;42.79;18.56;98568.81;5053498;28;19924;-47
2023/07/23 09:18:00;;;;;;;;;;;;;;;43.35;18.62;98562.72;5053434;28;19917;-47
2023/07/23 09:20:25;;;;;;;;;;;;;;;44.15;17.69;98557.88;5053434;28;19917;-47
2023/07/23 09:22:51;;;;;;;;;;;;;;;44.72;17.18;98552.94;5054689;28;20464;-48
2023/07/23 09:25:18;;;;;;;;;;;;;;;45.38;16.53;98561.91;5053345;28;19917;-47
2023/07/23 09:27:43;;;;;;;;;;;;;;;46.27;16.42;98556.91;5054595;28;20020;-47
2023/07/23 09:30:18;;;;;;;;;;;;;;;47.36;15.29;98552.81;5058702;28;20370;-48
2023/07/23 09:32:44;;;;;;;;;;;;;;;47.43;14.53;98549.75;5074317;28;19920;-48
2023/07/23 09:35:09;;;;;;;;;;;;;;;45.50;15.41;98543.75;5056464;28;20345;-48
2023/07/23 09:37:35;;;;;;;;;;;;;;;43.96;16.84;98548.41;5074382;28;20019;-48
2023/07/23 09:40:01;;;;;;;;;;;;;;;42.91;17.06;98553.66;5074283;28;19920;-47
2023/07/23 09:42:26;;;;;;;;;;;;;;;42.06;17.98;98552.59;5074306;28;20372;-47
2023/07/23 09:44:52;;;;;;;;;;;;;;;41.79;18.27;98544.28;5056209;28;19921;-47
2023/07/23 09:47:24;;;;;;;;;;;;;;;41.47;18.40;98547.44;5056178;28;19920;-47
2023/07/23 09:49:51;;;;;;;;;;;;;;;41.68;18.59;98546.41;5056149;28;19931;-47
2023/07/23 09:52:16;;;;;;;;;;;;;;;41.75;17.99;98546.31;5056009;28;19917;-47
2023/07/23 09:54:42;;;;;;;;;;;;;;;42.91;18.25;98539.84;5056158;28;19916;-47
2023/07/23 09:57:08;;;;;;;;;;;;;;;44.51;16.92;98532.13;5056009;28;19927;-47
2023/07/23 09:59:36;;;;;;;;;;;;;;;44.85;16.35;98528.06;5056213;28;19916;-47
2023/07/23 10:02:02;;;;;;;;;;;;;;;44.40;16.14;98529.59;5074194;28;20007;-47
2023/07/23 10:04:30;;;;;;;;;;;;;;;43.58;16.50;98528.69;5074052;28;19927;-47
2023/07/23 10:06:55;;;;;;;;;;;;;;;42.48;16.71;98533.06;5055812;28;19978;-47
2023/07/23 10:09:22;;;;;;;;;;;;;;;40.99;17.04;98532.59;5073782;28;19956;-48
2023/07/23 10:11:47;;;;;;;;;;;;;;;40.24;17.23;98528.47;5073665;28;19920;-47
2023/07/23 10:14:13;;;;;;;;;;;;;;;41.13;17.08;98521.44;5039213;28;20271;-47
2023/07/23 10:16:40;;;;;;;;;;;;;;;42.34;16.42;98517.50;5073611;28;20279;-47
2023/07/23 10:19:08;;;;;;;;;;;;;;;43.32;15.37;98505.53;5055664;28;19917;-47
2023/07/23 10:21:34;;;;;;;;;;;;;;;43.61;15.11;98512.03;5073498;28;19916;-47
2023/07/23 10:24:00;;;;;;;;;;;;;;;42.88;14.33;98511.88;5055296;28;19916;-47
2023/07/23 10:26:42;;;;;;;;;;;;;;;41.78;14.89;98506.91;5055435;28;19926;-47
2023/07/23 10:29:07;;;;;;;;;;;;;;;41.55;15.68;98506.78;5073316;28;19921;-47
2023/07/23 10:31:33;;;;;;;;;;;;;;;41.68;15.34;98500.34;5051742;28;19920;-47
2023/07/23 10:33:59;;;;;;;;;;;;;;;41.09;15.61;98506.94;5053285;28;19928;-47
2023/07/23 10:36:24;;;;;;;;;;;;;;;40.88;16.43;98496.91;5053254;28;19917;-47
2023/07/23 10:39:17;;;;;;;;;;;;;;;41.13;16.61;98501.38;5051956;28;19916;-47
2023/07/23 10:41:49;;;;;;;;;;;;;;;40.75;16.52;98495.09;5053449;28;19916;-47
2023/07/23 10:44:24;;;;;;;;;;;;;;;39.57;17.30;98491.19;5051828;28;19917;-47
2023/07/23 10:46:49;;;;;;;;;;;;;;;38.31;17.42;98474.94;5051777;28;20367;-47
2023/07/23 10:49:35;;;;;;;;;;;;;;;37.60;18.25;98483.81;5053286;28;19920;-47
2023/07/23 10:52:13;;;;;;;;;;;;;;;38.44;18.52;98483.56;5052883;28;19923;-47
2023/07/23 10:54:38;;;;;;;;;;;;;;;39.43;17.26;98475.56;5051660;28;20030;-47
2023/07/23 10:57:05;;;;;;;;;;;;;;;39.97;16.22;98470.56;5051615;28;19917;-47
2023/07/23 10:59:30;;;;;;;;;;;;;;;40.41;15.76;98462.75;5051522;28;19971;-47
2023/07/23 11:01:55;;;;;;;;;;;;;;;40.51;15.82;98450.91;5052788;28;19921;-47
2023/07/23 11:04:26;;;;;;;;;;;;;;;40.49;15.96;98440.28;5052748;28;19920;-48
2023/07/23 11:06:55;;;;;;;;;;;;;;;41.45;16.16;98445.91;5051435;28;19916;-48
2023/07/23 11:09:28;;;;;;;;;;;;;;;42.40;15.49;98443.31;5051383;28;19923;-47
2023/07/23 11:11:54;;;;;;;;;;;;;;;42.33;15.01;98435.94;5051249;28;20410;-47
2023/07/23 11:14:20;;;;;;;;;;;;;;;42.01;15.03;98430.94;5052604;28;20456;-48
2023/07/23 11:16:47;;;;;;;;;;;;;;;41.85;15.02;98432.34;5051240;28;19917;-47
2023/07/23 11:19:13;;;;;;;;;;;;;;;41.68;15.10;98433.44;5051222;28;19917;-47
2023/07/23 11:21:45;;;;;;;;;;;;;;;41.14;15.37;98417.56;5052454;28;19916;-47
2023/07/23 11:24:10;;;;;;;;;;;;;;;40.59;15.43;98416.63;5051194;28;19924;-47
2023/07/23 11:26:36;;;;;;;;;;;;;;;40.68;15.69;98411.41;5051101;28;19963;-47
2023/07/23 11:29:03;;;;;;;;;;;;;;;40.92;16.06;98412.31;5051099;28;19923;-47
2023/07/23 11:31:29;;;;;;;;;;;;;;;41.57;15.16;98413.47;5067469;28;19927;-47
2023/07/23 11:33:56;;;;;;;;;;;;;;;41.33;14.85;98407.91;5054140;28;19916;-47
2023/07/23 11:36:22;;;;;;;;;;;;;;;41.13;14.16;98399.47;5071865;28;19943;-47
2023/07/23 11:38:52;;;;;;;;;;;;;;;41.10;14.60;98389.31;5054291;28;19920;-47
2023/07/23 11:41:18;;;;;;;;;;;;;;;41.14;13.81;98390.03;5054185;28;19967;-47
2023/07/23 11:43:43;;;;;;;;;;;;;;;41.13;14.17;98397.53;5072135;28;19960;-47
2023/07/23 11:46:09;;;;;;;;;;;;;;;40.96;13.84;98384.75;5072155;28;19923;-48
2023/07/23 11:48:36;;;;;;;;;;;;;;;40.60;13.99;98367.88;5054177;28;20447;-47
2023/07/23 11:51:02;;;;;;;;;;;;;;;40.28;14.33;98390.97;5054090;28;19916;-47
2023/07/23 11:53:35;;;;;;;;;;;;;;;40.42;14.68;98379.84;5072289;28;19927;-47
2023/07/23 11:56:22;;;;;;;;;;;;;;;40.57;14.64;98374.19;5054092;28;19916;-47
2023/07/23 11:58:47;;;;;;;;;;;;;;;40.54;14.60;98367.53;5054093;28;19920;-48
2023/07/23 12:01:13;;;;;;;;;;;;;;;40.19;14.77;98377.69;5054000;28;20382;-46
2023/07/23 12:03:40;;;;;;;;;;;;;;;40.26;15.30;98376.84;5071950;28;20402;-47
2023/07/23 12:06:05;;;;;;;;;;;;;;;40.26;15.20;98361.13;5072002;28;19916;-47
2023/07/23 12:08:31;;;;;;;;;;;;;;;40.06;15.42;98365.63;5053949;28;20000;-47
2023/07/23 12:10:57;;;;;;;;;;;;;;;39.79;15.59;98366.22;5071902;28;19974;-47
2023/07/23 12:13:26;;;;;;;;;;;;;;;39.79;15.82;98357.22;5071757;28;19916;-47
2023/07/23 12:15:54;;;;;;;;;;;;;;;39.63;15.95;98346.75;5071894;28;19917;-47
2023/07/23 12:18:25;;;;;;;;;;;;;;;39.25;16.02;98343.81;5071851;28;19927;-47
2023/07/23 12:20:56;;;;;;;;;;;;;;;39.07;16.37;98344.69;5071889;28;19923;-48
2023/07/23 12:23:22;;;;;;;;;;;;;;;39.29;16.79;98339.09;5071888;28;19923;-47
2023/07/23 12:25:47;;;;;;;;;;;;;;;39.58;16.71;98336.94;5071772;28;19924;-47
2023/07/23 12:28:13;;;;;;;;;;;;;;;39.88;16.43;98336.34;5071875;28;19917;-47
2023/07/23 12:30:38;;;;;;;;;;;;;;;39.99;16.06;98321.75;5071493;28;20378;-48
2023/07/23 12:33:03;;;;;;;;;;;;;;;39.68;16.30;98327.06;5071733;28;19961;-47
2023/07/23 12:35:29;;;;;;;;;;;;;;;39.50;16.38;98313.47;5053743;28;19921;-47
2023/07/23 12:37:54;;;;;;;;;;;;;;;39.65;16.93;98311.41;5072017;28;19917;-47
2023/07/23 12:40:20;;;;;;;;;;;;;;;39.89;16.24;98315.16;5071683;28;20381;-48
2023/07/23 12:42:45;;;;;;;;;;;;;;;39.65;16.43;98312.19;5071748;28;19968;-47